createdAt,value
2022-11-12T00:00:45.718Z,11.18
2022-11-12T00:06:06.000Z,10.88
2022-11-12T00:11:26.438Z,10.60
2022-11-12T00:16:46.635Z,10.43
2022-11-12T00:22:07.167Z,10.60
2022-11-12T00:27:27.535Z,10.40
2022-11-12T00:32:48.071Z,10.88
2022-11-12T00:38:08.106Z,9.10
2022-11-12T00:43:29.291Z,9.73
2022-11-12T00:48:49.545Z,8.88
2022-11-12T00:54:09.951Z,8.73
2022-11-12T00:59:30.319Z,7.82
2022-11-12T01:04:50.628Z,7.32
2022-11-12T01:10:11.673Z,7.07
2022-11-12T01:15:31.903Z,7.22
2022-11-12T01:20:52.077Z,7.20
2022-11-12T01:26:14.924Z,7.43
2022-11-12T01:31:38.410Z,7.25
2022-11-12T01:36:58.987Z,7.15
2022-11-12T01:42:19.078Z,6.65
2022-11-12T01:47:39.340Z,7.07
2022-11-12T01:53:08.742Z,6.38
2022-11-12T01:58:32.145Z,6.82
2022-11-12T02:03:52.637Z,6.10
2022-11-12T02:09:13.956Z,6.15
2022-11-12T02:14:34.910Z,7.05
2022-11-12T02:19:59.326Z,5.85
2022-11-12T02:25:23.541Z,5.88
2022-11-12T02:30:47.844Z,5.93
2022-11-12T02:36:08.184Z,6.15
2022-11-12T02:41:28.674Z,6.45
2022-11-12T02:46:49.106Z,6.07
2022-11-12T02:52:09.602Z,5.72
2022-11-12T02:57:37.695Z,6.47
2022-11-12T03:03:01.440Z,5.80
2022-11-12T03:08:21.908Z,6.03
2022-11-12T03:13:42.887Z,5.60
2022-11-12T03:19:03.136Z,6.20
2022-11-12T03:24:23.323Z,6.00
2022-11-12T03:29:44.056Z,5.53
2022-11-12T03:35:04.585Z,6.13
2022-11-12T03:40:25.645Z,5.95
2022-11-12T03:45:46.580Z,6.05
2022-11-12T03:51:07.054Z,5.40
2022-11-12T03:56:27.371Z,6.00
2022-11-12T04:01:47.881Z,5.13
2022-11-12T04:07:27.310Z,5.25
2022-11-12T04:13:05.952Z,5.15
2022-11-12T04:18:44.873Z,5.95
2022-11-12T04:24:05.444Z,5.90
2022-11-12T04:29:44.248Z,5.35
2022-11-12T04:35:07.489Z,5.40
2022-11-12T04:40:46.165Z,5.57
2022-11-12T04:46:06.233Z,5.35
2022-11-12T04:51:44.976Z,6.57
2022-11-12T04:57:05.073Z,6.20
2022-11-12T05:02:25.290Z,5.85
2022-11-12T05:07:45.486Z,6.35
2022-11-12T05:13:05.891Z,6.10
2022-11-12T05:18:26.646Z,5.97
2022-11-12T05:23:47.239Z,5.75
2022-11-12T05:29:08.993Z,6.25
2022-11-12T05:34:30.095Z,5.60
2022-11-12T05:39:50.133Z,6.00
2022-11-12T05:45:10.594Z,6.05
2022-11-12T05:50:39.746Z,5.28
2022-11-12T05:56:11.631Z,5.13
2022-11-12T06:01:32.421Z,5.28
2022-11-12T06:06:52.465Z,5.63
2022-11-12T06:12:12.910Z,5.32
2022-11-12T06:17:33.177Z,5.80
2022-11-12T06:22:53.636Z,5.85
2022-11-12T06:28:14.067Z,5.20
2022-11-12T06:33:34.600Z,5.03
2022-11-12T06:38:54.931Z,5.50
2022-11-12T06:44:20.779Z,5.22
2022-11-12T06:49:42.268Z,5.93
2022-11-12T06:55:02.584Z,6.47
2022-11-12T07:00:24.265Z,6.27
2022-11-12T07:05:44.471Z,12.27
2022-11-12T07:11:05.695Z,6.97
2022-11-12T07:16:26.070Z,8.65
2022-11-12T07:21:46.528Z,8.57
2022-11-12T07:27:06.963Z,10.20
2022-11-12T07:32:27.260Z,9.73
2022-11-12T07:37:47.872Z,8.95
2022-11-12T07:43:07.979Z,9.15
2022-11-12T07:48:31.985Z,9.30
2022-11-12T07:53:58.909Z,9.68
2022-11-12T07:59:19.542Z,10.38
2022-11-12T08:04:39.991Z,9.68
2022-11-12T08:10:00.386Z,9.85
2022-11-12T08:15:21.071Z,10.40
2022-11-12T08:20:41.205Z,8.80
2022-11-12T08:26:03.677Z,7.70
2022-11-12T08:31:24.062Z,6.93
2022-11-12T08:36:44.361Z,7.53
2022-11-12T08:42:04.951Z,7.50
2022-11-12T08:47:25.498Z,7.70
2022-11-12T08:52:46.003Z,6.97
2022-11-12T08:58:06.941Z,6.63
2022-11-12T09:03:27.137Z,6.05
2022-11-12T09:08:47.856Z,7.00
2022-11-12T09:14:08.287Z,6.65
2022-11-12T09:19:28.625Z,6.32
2022-11-12T09:24:49.144Z,6.70
2022-11-12T09:30:09.981Z,7.43
2022-11-12T09:35:30.862Z,8.20
2022-11-12T09:40:51.042Z,7.82
2022-11-12T09:46:30.089Z,9.52
2022-11-12T09:52:17.026Z,9.95
2022-11-12T09:57:37.700Z,10.70
2022-11-12T10:03:21.848Z,10.52
2022-11-12T10:08:58.571Z,11.10
2022-11-12T10:14:49.574Z,9.75
2022-11-12T10:20:26.114Z,10.50
2022-11-12T10:25:50.415Z,9.90
2022-11-12T10:31:17.121Z,10.18
2022-11-12T10:36:38.937Z,9.70
2022-11-12T10:42:08.771Z,10.35
2022-11-12T10:47:42.973Z,10.27
2022-11-12T10:53:10.307Z,9.93
2022-11-12T10:58:30.696Z,9.95
2022-11-12T11:03:58.005Z,10.52
2022-11-12T11:09:21.664Z,10.43
2022-11-12T11:14:44.615Z,10.98
2022-11-12T11:20:16.109Z,10.88
2022-11-12T11:25:37.957Z,11.85
2022-11-12T11:31:24.144Z,12.20
2022-11-12T11:37:00.128Z,12.10
2022-11-12T11:43:03.884Z,12.00
2022-11-12T11:48:48.908Z,11.95
2022-11-12T11:54:15.413Z,12.48
2022-11-12T12:00:11.010Z,11.63
2022-11-12T12:05:46.244Z,11.40
2022-11-12T12:11:15.149Z,12.30
2022-11-12T12:16:43.865Z,12.35
2022-11-12T12:22:09.980Z,12.05
2022-11-12T12:27:37.928Z,11.48
2022-11-12T12:33:28.687Z,11.85
2022-11-12T12:38:55.418Z,12.15
2022-11-12T12:44:15.910Z,11.82
2022-11-12T12:49:37.570Z,12.48
2022-11-12T12:54:58.317Z,12.35
2022-11-12T13:00:41.196Z,13.07
2022-11-12T13:06:23.644Z,13.60
2022-11-12T13:12:02.523Z,13.30
2022-11-12T13:17:46.136Z,12.80
2022-11-12T13:23:10.893Z,12.73
2022-11-12T13:28:30.964Z,13.50
2022-11-12T13:33:51.468Z,13.00
2022-11-12T13:39:15.655Z,12.80
2022-11-12T13:44:35.921Z,12.98
2022-11-12T13:50:01.281Z,13.13
2022-11-12T13:55:22.815Z,12.38
2022-11-12T14:00:53.023Z,12.80
2022-11-12T14:06:37.195Z,12.13
2022-11-12T14:12:09.805Z,11.20
2022-11-12T14:18:04.348Z,11.23
2022-11-12T14:23:26.070Z,10.32
2022-11-12T14:28:46.385Z,11.10
2022-11-12T14:34:20.982Z,10.18
2022-11-12T14:39:43.141Z,9.95
2022-11-12T14:45:03.666Z,9.63
2022-11-12T14:50:34.558Z,10.02
2022-11-12T14:55:59.390Z,9.68
2022-11-12T15:07:32.892Z,10.05
2022-11-12T15:12:53.029Z,9.52
2022-11-12T15:18:33.861Z,10.52
2022-11-12T15:24:22.097Z,7.47
2022-11-12T15:29:42.345Z,5.75
2022-11-12T15:35:02.837Z,5.30
2022-11-12T15:40:23.386Z,4.75
2022-11-12T15:45:43.718Z,4.78
2022-11-12T15:51:04.171Z,5.78
2022-11-12T15:56:24.457Z,7.63
2022-11-12T16:01:44.939Z,11.27
2022-11-12T16:07:07.873Z,17.33
2022-11-12T16:12:29.456Z,20.05
2022-11-12T16:17:50.036Z,13.10
2022-11-12T16:23:10.387Z,12.35
2022-11-12T16:28:30.890Z,12.25
2022-11-12T16:33:51.265Z,13.50
2022-11-12T16:39:13.530Z,15.38
2022-11-12T16:44:33.595Z,12.88
2022-11-12T16:49:54.078Z,12.48
2022-11-12T16:55:14.661Z,15.23
2022-11-12T17:00:35.264Z,14.90
2022-11-12T17:05:55.668Z,15.05
2022-11-12T17:11:16.385Z,20.83
2022-11-12T17:16:36.471Z,22.23
2022-11-12T17:21:56.869Z,29.33
2022-11-12T17:27:17.131Z,27.10
2022-11-12T17:32:37.672Z,25.73
2022-11-12T17:37:58.042Z,28.63
2022-11-12T17:43:18.473Z,25.52
2022-11-12T17:48:38.817Z,23.60
2022-11-12T17:53:59.135Z,25.10
2022-11-12T17:59:19.348Z,26.58
2022-11-12T18:04:39.729Z,26.45
2022-11-12T18:10:00.186Z,26.15
2022-11-12T18:15:20.598Z,25.30
2022-11-12T18:20:42.542Z,27.27
2022-11-12T18:26:02.734Z,25.98
2022-11-12T18:31:25.225Z,30.70
2022-11-12T18:36:45.382Z,28.40
2022-11-12T18:42:06.061Z,28.40
2022-11-12T18:47:26.643Z,27.88
2022-11-12T18:52:47.014Z,27.40
2022-11-12T18:58:07.535Z,27.50
2022-11-12T19:03:28.120Z,28.10
2022-11-12T19:08:49.144Z,27.23
2022-11-12T19:14:09.904Z,27.92
2022-11-12T19:19:30.413Z,27.30
2022-11-12T19:24:50.719Z,23.40
2022-11-12T19:30:11.425Z,25.05
2022-11-12T19:35:33.508Z,24.55
2022-11-12T19:40:53.623Z,27.33
2022-11-12T19:46:14.927Z,27.20
2022-11-12T19:51:35.532Z,28.15
2022-11-12T19:56:56.244Z,28.70
2022-11-12T20:02:16.610Z,29.77
2022-11-12T20:07:37.213Z,30.75
2022-11-12T20:12:57.689Z,29.23
2022-11-12T20:18:18.113Z,28.60
2022-11-12T20:23:40.610Z,28.60
2022-11-12T20:29:00.629Z,26.70
2022-11-12T20:34:21.342Z,27.63
2022-11-12T20:39:41.629Z,27.20
2022-11-12T20:45:02.179Z,30.53
2022-11-12T20:50:22.901Z,30.55
2022-11-12T20:55:43.233Z,29.70
2022-11-12T21:01:05.200Z,28.48
2022-11-12T21:06:28.536Z,29.90
2022-11-12T21:11:48.797Z,27.57
2022-11-12T21:17:09.396Z,28.77
2022-11-12T21:22:29.788Z,26.70
2022-11-12T21:27:50.229Z,30.55
2022-11-12T21:33:12.170Z,28.83
2022-11-12T21:38:32.976Z,28.30
2022-11-12T21:43:53.986Z,29.13
2022-11-12T21:49:14.167Z,26.83
2022-11-12T21:54:35.527Z,27.33
2022-11-12T22:00:08.221Z,26.43
2022-11-12T22:05:37.166Z,27.17
2022-11-12T22:11:11.167Z,28.00
2022-11-12T22:16:31.623Z,29.10
2022-11-12T22:21:51.721Z,31.27
2022-11-12T22:27:12.157Z,31.27
2022-11-12T22:32:32.376Z,35.33
2022-11-12T22:37:54.540Z,32.03
2022-11-12T22:43:14.720Z,33.13
2022-11-12T22:48:35.625Z,32.83
2022-11-12T22:54:00.505Z,34.03
2022-11-12T22:59:20.895Z,31.83
2022-11-12T23:04:41.305Z,32.70
2022-11-12T23:10:01.557Z,35.90
2022-11-12T23:15:21.752Z,39.57
2022-11-12T23:20:42.053Z,41.27
2022-11-12T23:26:09.160Z,42.43
2022-11-12T23:31:31.065Z,43.63
2022-11-12T23:36:51.067Z,42.47
2022-11-12T23:42:11.481Z,39.97
2022-11-12T23:47:31.982Z,41.73
2022-11-12T23:52:52.239Z,41.17
2022-11-12T23:58:12.660Z,39.80
